sensor_id;sensor_type;location;lat;lon;timestamp;pressure;altitude;pressure_sealevel;temperature;humidity
73566;BME280;61846;52.970;-3.168;2024-02-21T00:01:15;100604.94;;;13.01;55.91
73566;BME280;61846;52.970;-3.168;2024-02-21T00:03:36;100613.13;;;12.00;58.02
73566;BME280;61846;52.970;-3.168;2024-02-21T00:06:02;100613.82;;;12.57;57.90
73566;BME280;61846;52.970;-3.168;2024-02-21T00:08:27;100607.77;;;13.51;55.88
73566;BME280;61846;52.970;-3.168;2024-02-21T00:10:53;100608.37;;;12.34;58.21
73566;BME280;61846;52.970;-3.168;2024-02-21T00:13:18;100606.82;;;11.05;61.01
73566;BME280;61846;52.970;-3.168;2024-02-21T00:15:44;100603.80;;;11.84;59.58
73566;BME280;61846;52.970;-3.168;2024-02-21T00:18:10;100603.77;;;11.95;59.45
73566;BME280;61846;52.970;-3.168;2024-02-21T00:20:35;100589.64;;;13.05;56.85
73566;BME280;61846;52.970;-3.168;2024-02-21T00:23:00;100583.08;;;12.53;58.22
73566;BME280;61846;52.970;-3.168;2024-02-21T00:25:26;100582.91;;;12.40;58.04
73566;BME280;61846;52.970;-3.168;2024-02-21T00:27:51;100576.14;;;11.37;61.79
73566;BME280;61846;52.970;-3.168;2024-02-21T00:30:17;100566.55;;;9.13;69.16
73566;BME280;61846;52.970;-3.168;2024-02-21T00:32:42;100551.14;;;11.19;63.67
73566;BME280;61846;52.970;-3.168;2024-02-21T00:35:08;100538.47;;;10.81;64.76
73566;BME280;61846;52.970;-3.168;2024-02-21T00:37:33;100532.61;;;9.05;69.08
73566;BME280;61846;52.970;-3.168;2024-02-21T00:39:59;100531.78;;;9.82;68.16
73566;BME280;61846;52.970;-3.168;2024-02-21T00:42:25;100525.85;;;10.73;65.76
73566;BME280;61846;52.970;-3.168;2024-02-21T00:44:50;100522.45;;;10.63;65.98
73566;BME280;61846;52.970;-3.168;2024-02-21T00:47:16;100506.71;;;10.32;66.19
73566;BME280;61846;52.970;-3.168;2024-02-21T00:49:41;100498.61;;;9.80;67.38
73566;BME280;61846;52.970;-3.168;2024-02-21T00:52:07;100485.74;;;11.13;64.16
73566;BME280;61846;52.970;-3.168;2024-02-21T00:54:32;100484.30;;;10.85;65.53
73566;BME280;61846;52.970;-3.168;2024-02-21T00:56:58;100477.51;;;10.99;64.94
73566;BME280;61846;52.970;-3.168;2024-02-21T00:59:23;100479.66;;;9.13;71.04
73566;BME280;61846;52.970;-3.168;2024-02-21T01:01:49;100471.11;;;10.71;66.92
73566;BME280;61846;52.970;-3.168;2024-02-21T01:04:14;100465.94;;;11.12;64.98
73566;BME280;61846;52.970;-3.168;2024-02-21T01:06:40;100457.87;;;10.53;66.34
73566;BME280;61846;52.970;-3.168;2024-02-21T01:09:05;100441.36;;;9.40;69.51
73566;BME280;61846;52.970;-3.168;2024-02-21T01:11:31;100425.07;;;9.15;70.56
73566;BME280;61846;52.970;-3.168;2024-02-21T01:13:57;100421.50;;;9.75;69.30
73566;BME280;61846;52.970;-3.168;2024-02-21T01:16:22;100411.48;;;10.91;66.09
73566;BME280;61846;52.970;-3.168;2024-02-21T01:18:48;100400.33;;;11.47;63.96
73566;BME280;61846;52.970;-3.168;2024-02-21T01:21:13;100398.29;;;9.80;67.88
73566;BME280;61846;52.970;-3.168;2024-02-21T01:23:39;100386.41;;;11.28;63.88
73566;BME280;61846;52.970;-3.168;2024-02-21T01:26:04;100385.15;;;10.57;66.02
73566;BME280;61846;52.970;-3.168;2024-02-21T01:28:30;100382.53;;;10.94;64.99
73566;BME280;61846;52.970;-3.168;2024-02-21T01:30:56;100383.43;;;9.04;71.30
73566;BME280;61846;52.970;-3.168;2024-02-21T01:33:21;100382.56;;;9.79;69.66
73566;BME280;61846;52.970;-3.168;2024-02-21T01:35:47;100382.09;;;9.80;69.53
73566;BME280;61846;52.970;-3.168;2024-02-21T01:38:13;100382.88;;;9.22;70.56
73566;BME280;61846;52.970;-3.168;2024-02-21T01:40:38;100388.67;;;9.76;69.17
73566;BME280;61846;52.970;-3.168;2024-02-21T01:43:03;100383.44;;;9.82;70.08
73566;BME280;61846;52.970;-3.168;2024-02-21T01:45:29;100384.30;;;8.98;70.97
73566;BME280;61846;52.970;-3.168;2024-02-21T01:47:54;100377.09;;;10.11;68.68
73566;BME280;61846;52.970;-3.168;2024-02-21T01:50:22;100367.19;;;10.70;66.00
73566;BME280;61846;52.970;-3.168;2024-02-21T01:52:47;100360.98;;;9.23;71.34
73566;BME280;61846;52.970;-3.168;2024-02-21T01:55:11;100343.21;;;8.82;71.21
73566;BME280;61846;52.970;-3.168;2024-02-21T01:57:37;100341.38;;;9.40;71.40
73566;BME280;61846;52.970;-3.168;2024-02-21T02:00:03;100328.60;;;8.56;74.68
73566;BME280;61846;52.970;-3.168;2024-02-21T02:02:28;100326.95;;;10.02;69.27
73566;BME280;61846;52.970;-3.168;2024-02-21T02:04:54;100320.60;;;10.06;69.34
73566;BME280;61846;52.970;-3.168;2024-02-21T02:07:19;100319.30;;;8.15;75.11
73566;BME280;61846;52.970;-3.168;2024-02-21T02:09:44;100305.09;;;9.65;71.50
73566;BME280;61846;52.970;-3.168;2024-02-21T02:12:10;100308.54;;;7.39;80.12
73566;BME280;61846;52.970;-3.168;2024-02-21T02:14:35;100298.99;;;7.93;77.15
73566;BME280;61846;52.970;-3.168;2024-02-21T02:17:01;100287.93;;;8.83;75.08
73566;BME280;61846;52.970;-3.168;2024-02-21T02:19:26;100278.00;;;9.11;73.58
73566;BME280;61846;52.970;-3.168;2024-02-21T02:21:56;100269.75;;;9.49;71.98
73566;BME280;61846;52.970;-3.168;2024-02-21T02:24:18;100256.55;;;8.96;73.39
73566;BME280;61846;52.970;-3.168;2024-02-21T02:26:43;100250.52;;;9.55;71.93
73566;BME280;61846;52.970;-3.168;2024-02-21T02:29:10;100241.26;;;9.02;73.38
73566;BME280;61846;52.970;-3.168;2024-02-21T02:31:34;100232.58;;;9.58;73.10
73566;BME280;61846;52.970;-3.168;2024-02-21T02:34:00;100217.52;;;9.50;71.70
73566;BME280;61846;52.970;-3.168;2024-02-21T02:36:27;100219.85;;;8.11;76.77
73566;BME280;61846;52.970;-3.168;2024-02-21T02:38:51;100209.60;;;9.77;72.70
73566;BME280;61846;52.970;-3.168;2024-02-21T02:41:17;100207.10;;;8.94;74.39
73566;BME280;61846;52.970;-3.168;2024-02-21T02:43:42;100210.19;;;8.21;76.32
73566;BME280;61846;52.970;-3.168;2024-02-21T02:46:08;100201.53;;;9.54;71.69
73566;BME280;61846;52.970;-3.168;2024-02-21T02:48:33;100196.04;;;10.15;70.34
73566;BME280;61846;52.970;-3.168;2024-02-21T02:50:59;100185.60;;;8.85;74.74
73566;BME280;61846;52.970;-3.168;2024-02-21T02:53:24;100183.47;;;8.30;76.63
73566;BME280;61846;52.970;-3.168;2024-02-21T02:55:50;100182.68;;;8.26;75.62
73566;BME280;61846;52.970;-3.168;2024-02-21T02:58:15;100165.48;;;9.74;70.96
73566;BME280;61846;52.970;-3.168;2024-02-21T03:00:41;100154.71;;;8.65;75.49
73566;BME280;61846;52.970;-3.168;2024-02-21T03:03:06;100141.40;;;9.42;71.95
73566;BME280;61846;52.970;-3.168;2024-02-21T03:05:32;100129.88;;;9.21;72.65
73566;BME280;61846;52.970;-3.168;2024-02-21T03:07:58;100110.46;;;8.48;74.88
73566;BME280;61846;52.970;-3.168;2024-02-21T03:10:23;100109.72;;;7.39;79.15
73566;BME280;61846;52.970;-3.168;2024-02-21T03:12:49;100100.47;;;9.01;75.09
73566;BME280;61846;52.970;-3.168;2024-02-21T03:15:14;100090.97;;;8.62;75.40
73566;BME280;61846;52.970;-3.168;2024-02-21T03:17:40;100086.20;;;10.10;71.46
73566;BME280;61846;52.970;-3.168;2024-02-21T03:20:07;100071.90;;;8.54;74.49
73566;BME280;61846;52.970;-3.168;2024-02-21T03:24:57;100059.66;;;8.34;77.78
73566;BME280;61846;52.970;-3.168;2024-02-21T03:27:22;100049.55;;;7.21;79.55
73566;BME280;61846;52.970;-3.168;2024-02-21T03:29:48;100051.36;;;6.86;81.78
73566;BME280;61846;52.970;-3.168;2024-02-21T03:32:13;100037.83;;;7.58;78.76
73566;BME280;61846;52.970;-3.168;2024-02-21T03:34:39;100030.66;;;8.26;76.90
73566;BME280;61846;52.970;-3.168;2024-02-21T03:37:04;100027.85;;;7.82;78.72
73566;BME280;61846;52.970;-3.168;2024-02-21T03:39:31;100019.21;;;7.93;79.03
73566;BME280;61846;52.970;-3.168;2024-02-21T03:41:56;100005.65;;;7.60;79.70
73566;BME280;61846;52.970;-3.168;2024-02-21T03:44:21;99998.70;;;8.46;77.32
73566;BME280;61846;52.970;-3.168;2024-02-21T03:46:46;99989.62;;;7.36;80.24
73566;BME280;61846;52.970;-3.168;2024-02-21T03:49:12;99991.63;;;7.48;79.92
73566;BME280;61846;52.970;-3.168;2024-02-21T03:51:38;99987.90;;;7.24;80.98
73566;BME280;61846;52.970;-3.168;2024-02-21T03:54:03;99973.63;;;7.58;83.62
73566;BME280;61846;52.970;-3.168;2024-02-21T03:56:29;99976.88;;;6.78;83.50
73566;BME280;61846;52.970;-3.168;2024-02-21T03:58:55;99980.39;;;7.69;79.97
73566;BME280;61846;52.970;-3.168;2024-02-21T04:01:20;99982.84;;;7.42;81.17
73566;BME280;61846;52.970;-3.168;2024-02-21T04:03:46;99982.98;;;7.84;77.86
73566;BME280;61846;52.970;-3.168;2024-02-21T04:06:11;99974.68;;;7.70;77.47
73566;BME280;61846;52.970;-3.168;2024-02-21T04:08:37;99963.25;;;7.85;79.06
73566;BME280;61846;52.970;-3.168;2024-02-21T04:11:02;99954.15;;;9.88;71.43
73566;BME280;61846;52.970;-3.168;2024-02-21T04:13:28;99951.07;;;9.32;71.49
73566;BME280;61846;52.970;-3.168;2024-02-21T04:15:55;99942.83;;;9.43;70.99
73566;BME280;61846;52.970;-3.168;2024-02-21T04:18:20;99942.19;;;9.95;69.79
73566;BME280;61846;52.970;-3.168;2024-02-21T04:20:44;99933.85;;;8.93;71.19
73566;BME280;61846;52.970;-3.168;2024-02-21T04:23:10;99918.58;;;10.12;68.53
73566;BME280;61846;52.970;-3.168;2024-02-21T04:25:36;99918.44;;;7.57;76.60
73566;BME280;61846;52.970;-3.168;2024-02-21T04:28:01;99900.93;;;7.55;77.69
73566;BME280;61846;52.970;-3.168;2024-02-21T04:30:27;99885.62;;;8.77;73.65
73566;BME280;61846;52.970;-3.168;2024-02-21T04:32:52;99883.98;;;8.41;73.94
73566;BME280;61846;52.970;-3.168;2024-02-21T04:35:18;99873.94;;;8.84;72.86
73566;BME280;61846;52.970;-3.168;2024-02-21T04:37:43;99872.82;;;8.23;73.90
73566;BME280;61846;52.970;-3.168;2024-02-21T04:40:10;99855.76;;;8.92;71.98
73566;BME280;61846;52.970;-3.168;2024-02-21T04:42:34;99839.30;;;8.69;71.51
73566;BME280;61846;52.970;-3.168;2024-02-21T04:45:00;99844.58;;;7.19;76.17
73566;BME280;61846;52.970;-3.168;2024-02-21T04:47:26;99842.07;;;8.13;74.80
73566;BME280;61846;52.970;-3.168;2024-02-21T04:49:51;99830.75;;;10.18;68.65
73566;BME280;61846;52.970;-3.168;2024-02-21T04:52:17;99831.11;;;8.70;71.93
73566;BME280;61846;52.970;-3.168;2024-02-21T04:54:42;99805.75;;;8.27;72.77
73566;BME280;61846;52.970;-3.168;2024-02-21T04:57:08;99800.37;;;7.69;76.57
73566;BME280;61846;52.970;-3.168;2024-02-21T04:59:33;99795.57;;;7.25;79.57
73566;BME280;61846;52.970;-3.168;2024-02-21T05:01:59;99785.37;;;6.89;82.28
73566;BME280;61846;52.970;-3.168;2024-02-21T05:04:24;99775.31;;;7.36;79.71
73566;BME280;61846;52.970;-3.168;2024-02-21T05:06:50;99765.98;;;7.87;79.29
73566;BME280;61846;52.970;-3.168;2024-02-21T05:09:16;99762.39;;;6.89;80.42
73566;BME280;61846;52.970;-3.168;2024-02-21T05:11:41;99753.12;;;7.65;77.33
73566;BME280;61846;52.970;-3.168;2024-02-21T05:14:07;99742.49;;;7.47;79.94
73566;BME280;61846;52.970;-3.168;2024-02-21T05:16:32;99733.40;;;7.60;78.49
73566;BME280;61846;52.970;-3.168;2024-02-21T05:18:58;99721.95;;;7.33;78.89
73566;BME280;61846;52.970;-3.168;2024-02-21T05:21:24;99730.22;;;7.29;78.04
73566;BME280;61846;52.970;-3.168;2024-02-21T05:23:49;99723.49;;;7.63;77.96
73566;BME280;61846;52.970;-3.168;2024-02-21T05:26:20;99700.24;;;7.77;77.04
73566;BME280;61846;52.970;-3.168;2024-02-21T05:28:40;99693.18;;;8.51;73.18
73566;BME280;61846;52.970;-3.168;2024-02-21T05:31:07;99691.44;;;8.18;75.38
73566;BME280;61846;52.970;-3.168;2024-02-21T05:33:32;99685.22;;;8.86;71.89
73566;BME280;61846;52.970;-3.168;2024-02-21T05:35:57;99678.94;;;8.02;75.18
73566;BME280;61846;52.970;-3.168;2024-02-21T05:38:23;99679.47;;;7.24;78.49
73566;BME280;61846;52.970;-3.168;2024-02-21T05:40:48;99670.92;;;7.79;77.49
73566;BME280;61846;52.970;-3.168;2024-02-21T05:43:14;99647.25;;;7.60;77.14
73566;BME280;61846;52.970;-3.168;2024-02-21T05:45:39;99647.25;;;6.73;80.00
73566;BME280;61846;52.970;-3.168;2024-02-21T05:48:05;99641.90;;;7.98;76.98
73566;BME280;61846;52.970;-3.168;2024-02-21T05:50:31;99625.58;;;6.82;78.20
73566;BME280;61846;52.970;-3.168;2024-02-21T05:52:56;99624.00;;;6.95;78.38
73566;BME280;61846;52.970;-3.168;2024-02-21T05:55:22;99621.46;;;6.82;78.69
73566;BME280;61846;52.970;-3.168;2024-02-21T05:57:47;99609.58;;;7.26;76.64
73566;BME280;61846;52.970;-3.168;2024-02-21T06:00:14;99613.34;;;6.09;80.51
73566;BME280;61846;52.970;-3.168;2024-02-21T06:02:38;99613.16;;;6.93;79.19
73566;BME280;61846;52.970;-3.168;2024-02-21T06:05:05;99608.54;;;8.43;73.50
73566;BME280;61846;52.970;-3.168;2024-02-21T06:07:30;99601.93;;;8.28;73.87
73566;BME280;61846;52.970;-3.168;2024-02-21T06:09:55;99558.29;;;7.34;75.45
73566;BME280;61846;52.970;-3.168;2024-02-21T06:12:21;99556.51;;;7.21;77.28
73566;BME280;61846;52.970;-3.168;2024-02-21T06:14:46;99537.52;;;8.12;75.25
73566;BME280;61846;52.970;-3.168;2024-02-21T06:17:12;99545.65;;;7.19;75.60
73566;BME280;61846;52.970;-3.168;2024-02-21T06:19:39;99550.54;;;6.96;78.12
73566;BME280;61846;52.970;-3.168;2024-02-21T06:22:03;99549.02;;;6.61;78.75
73566;BME280;61846;52.970;-3.168;2024-02-21T06:24:28;99537.72;;;7.41;77.21
73566;BME280;61846;52.970;-3.168;2024-02-21T06:26:54;99535.55;;;7.22;78.43
73566;BME280;61846;52.970;-3.168;2024-02-21T06:29:20;99524.73;;;6.75;78.03
73566;BME280;61846;52.970;-3.168;2024-02-21T06:31:45;99517.65;;;7.03;77.50
73566;BME280;61846;52.970;-3.168;2024-02-21T06:34:12;99504.61;;;6.63;78.98
73566;BME280;61846;52.970;-3.168;2024-02-21T06:36:36;99489.56;;;6.98;78.38
73566;BME280;61846;52.970;-3.168;2024-02-21T06:39:02;99496.12;;;7.22;76.25
73566;BME280;61846;52.970;-3.168;2024-02-21T06:41:27;99481.35;;;7.22;78.98
73566;BME280;61846;52.970;-3.168;2024-02-21T06:43:53;99476.85;;;6.56;78.96
73566;BME280;61846;52.970;-3.168;2024-02-21T06:46:24;99460.24;;;6.42;80.34
73566;BME280;61846;52.970;-3.168;2024-02-21T06:48:44;99459.85;;;7.08;78.18
73566;BME280;61846;52.970;-3.168;2024-02-21T06:51:10;99444.41;;;7.05;79.33
73566;BME280;61846;52.970;-3.168;2024-02-21T06:53:35;99422.82;;;6.67;80.10
73566;BME280;61846;52.970;-3.168;2024-02-21T06:56:01;99413.69;;;7.48;76.41
73566;BME280;61846;52.970;-3.168;2024-02-21T06:58:26;99394.59;;;7.34;77.35
73566;BME280;61846;52.970;-3.168;2024-02-21T07:00:54;99408.11;;;6.53;78.66
73566;BME280;61846;52.970;-3.168;2024-02-21T07:03:18;99395.19;;;6.71;78.85
73566;BME280;61846;52.970;-3.168;2024-02-21T07:05:43;99391.13;;;6.57;79.03
73566;BME280;61846;52.970;-3.168;2024-02-21T07:08:11;99384.49;;;6.40;79.22
73566;BME280;61846;52.970;-3.168;2024-02-21T07:10:35;99381.96;;;6.49;79.49
73566;BME280;61846;52.970;-3.168;2024-02-21T07:13:02;99375.47;;;7.07;77.31
73566;BME280;61846;52.970;-3.168;2024-02-21T07:15:26;99367.86;;;7.25;77.41
73566;BME280;61846;52.970;-3.168;2024-02-21T07:17:51;99348.94;;;7.39;76.59
73566;BME280;61846;52.970;-3.168;2024-02-21T07:20:17;99352.98;;;7.45;76.80
73566;BME280;61846;52.970;-3.168;2024-02-21T07:22:42;99350.61;;;7.35;76.17
73566;BME280;61846;52.970;-3.168;2024-02-21T07:25:09;99342.38;;;6.96;76.87
73566;BME280;61846;52.970;-3.168;2024-02-21T07:27:34;99330.67;;;6.93;76.46
73566;BME280;61846;52.970;-3.168;2024-02-21T07:29:59;99312.22;;;6.99;78.90
73566;BME280;61846;52.970;-3.168;2024-02-21T07:32:25;99306.78;;;8.37;73.44
73566;BME280;61846;52.970;-3.168;2024-02-21T07:34:50;99299.73;;;7.43;75.52
73566;BME280;61846;52.970;-3.168;2024-02-21T07:37:16;99324.57;;;5.91;81.93
73566;BME280;61846;52.970;-3.168;2024-02-21T07:39:42;99305.51;;;5.53;82.93
73566;BME280;61846;52.970;-3.168;2024-02-21T07:42:07;99288.70;;;7.47;77.07
73566;BME280;61846;52.970;-3.168;2024-02-21T07:44:33;99285.39;;;7.31;76.40
73566;BME280;61846;52.970;-3.168;2024-02-21T07:46:58;99267.72;;;6.69;79.54
73566;BME280;61846;52.970;-3.168;2024-02-21T07:49:25;99263.92;;;6.13;80.72
73566;BME280;61846;52.970;-3.168;2024-02-21T07:51:50;99262.57;;;5.93;81.87
73566;BME280;61846;52.970;-3.168;2024-02-21T07:54:15;99241.88;;;6.29;80.45
73566;BME280;61846;52.970;-3.168;2024-02-21T07:56:40;99233.73;;;6.67;78.93
73566;BME280;61846;52.970;-3.168;2024-02-21T07:59:06;99227.74;;;6.21;82.33
73566;BME280;61846;52.970;-3.168;2024-02-21T08:01:32;99219.17;;;7.11;78.65
73566;BME280;61846;52.970;-3.168;2024-02-21T08:03:57;99208.62;;;7.26;77.48
73566;BME280;61846;52.970;-3.168;2024-02-21T08:06:23;99203.01;;;5.99;81.33
73566;BME280;61846;52.970;-3.168;2024-02-21T08:08:48;99192.43;;;6.01;81.89
73566;BME280;61846;52.970;-3.168;2024-02-21T08:11:14;99183.88;;;7.13;76.69
73566;BME280;61846;52.970;-3.168;2024-02-21T08:13:41;99180.71;;;7.20;77.99
73566;BME280;61846;52.970;-3.168;2024-02-21T08:16:05;99168.38;;;7.17;77.10
73566;BME280;61846;52.970;-3.168;2024-02-21T08:18:30;99172.50;;;7.56;75.14
73566;BME280;61846;52.970;-3.168;2024-02-21T08:20:56;99159.28;;;8.29;73.49
73566;BME280;61846;52.970;-3.168;2024-02-21T08:23:23;99137.88;;;6.42;79.44
73566;BME280;61846;52.970;-3.168;2024-02-21T08:25:47;99137.67;;;7.18;78.34
73566;BME280;61846;52.970;-3.168;2024-02-21T08:28:13;99119.40;;;6.18;82.57
73566;BME280;61846;52.970;-3.168;2024-02-21T08:30:38;99125.84;;;6.98;78.52
73566;BME280;61846;52.970;-3.168;2024-02-21T08:33:04;99117.81;;;7.46;76.07
73566;BME280;61846;52.970;-3.168;2024-02-21T08:35:29;99102.13;;;7.89;75.96
73566;BME280;61846;52.970;-3.168;2024-02-21T08:37:54;99087.00;;;8.29;74.12
73566;BME280;61846;52.970;-3.168;2024-02-21T08:40:20;99085.23;;;7.39;78.58
73566;BME280;61846;52.970;-3.168;2024-02-21T08:42:46;99074.89;;;7.42;76.97
73566;BME280;61846;52.970;-3.168;2024-02-21T08:45:11;99064.10;;;7.06;78.01
73566;BME280;61846;52.970;-3.168;2024-02-21T08:47:39;99062.24;;;7.36;77.67
73566;BME280;61846;52.970;-3.168;2024-02-21T08:50:03;99064.84;;;6.54;78.65
73566;BME280;61846;52.970;-3.168;2024-02-21T08:52:28;99059.76;;;6.28;81.81
73566;BME280;61846;52.970;-3.168;2024-02-21T08:54:53;99054.77;;;6.96;79.68
73566;BME280;61846;52.970;-3.168;2024-02-21T08:57:19;99041.93;;;7.11;79.02
73566;BME280;61846;52.970;-3.168;2024-02-21T08:59:45;99027.16;;;7.78;76.76
73566;BME280;61846;52.970;-3.168;2024-02-21T09:02:11;99018.33;;;7.07;79.33
73566;BME280;61846;52.970;-3.168;2024-02-21T09:04:36;98985.32;;;8.82;73.87
73566;BME280;61846;52.970;-3.168;2024-02-21T09:07:01;98982.23;;;7.70;75.79
73566;BME280;61846;52.970;-3.168;2024-02-21T09:09:27;98986.21;;;7.49;78.09
73566;BME280;61846;52.970;-3.168;2024-02-21T09:11:53;98973.45;;;6.74;81.15
73566;BME280;61846;52.970;-3.168;2024-02-21T09:14:18;98957.83;;;7.69;78.33
73566;BME280;61846;52.970;-3.168;2024-02-21T09:16:44;98953.78;;;7.89;76.56
73566;BME280;61846;52.970;-3.168;2024-02-21T09:19:10;98946.94;;;8.86;73.37
73566;BME280;61846;52.970;-3.168;2024-02-21T09:21:35;98944.80;;;7.79;76.93
73566;BME280;61846;52.970;-3.168;2024-02-21T09:24:00;98931.64;;;7.16;77.99
73566;BME280;61846;52.970;-3.168;2024-02-21T09:26:26;98923.92;;;8.21;77.93
73566;BME280;61846;52.970;-3.168;2024-02-21T09:28:52;98915.44;;;7.82;78.19
73566;BME280;61846;52.970;-3.168;2024-02-21T09:31:17;98908.80;;;6.99;81.75
73566;BME280;61846;52.970;-3.168;2024-02-21T09:33:43;98919.24;;;6.93;81.48
73566;BME280;61846;52.970;-3.168;2024-02-21T09:36:09;98916.53;;;7.70;79.42
73566;BME280;61846;52.970;-3.168;2024-02-21T09:38:34;98909.23;;;6.93;84.57
73566;BME280;61846;52.970;-3.168;2024-02-21T09:41:04;98892.45;;;7.43;82.84
73566;BME280;61846;52.970;-3.168;2024-02-21T09:43:25;98872.69;;;8.22;80.15
73566;BME280;61846;52.970;-3.168;2024-02-21T09:45:54;98868.54;;;8.09;79.07
73566;BME280;61846;52.970;-3.168;2024-02-21T09:48:29;98865.38;;;7.32;83.46
73566;BME280;61846;52.970;-3.168;2024-02-21T09:50:43;98848.94;;;6.67;84.36
73566;BME280;61846;52.970;-3.168;2024-02-21T09:53:08;98842.09;;;7.76;82.24
73566;BME280;61846;52.970;-3.168;2024-02-21T09:55:33;98830.51;;;6.77;84.92
73566;BME280;61846;52.970;-3.168;2024-02-21T09:57:59;98825.55;;;8.18;81.11
73566;BME280;61846;52.970;-3.168;2024-02-21T10:00:24;98839.12;;;7.41;83.27
73566;BME280;61846;52.970;-3.168;2024-02-21T10:02:50;98822.68;;;7.15;85.08
73566;BME280;61846;52.970;-3.168;2024-02-21T10:05:15;98816.59;;;7.67;82.36
73566;BME280;61846;52.970;-3.168;2024-02-21T10:07:41;98809.47;;;8.04;82.09
73566;BME280;61846;52.970;-3.168;2024-02-21T10:10:08;98799.23;;;7.56;85.56
73566;BME280;61846;52.970;-3.168;2024-02-21T10:12:32;98791.38;;;7.91;83.58
73566;BME280;61846;52.970;-3.168;2024-02-21T10:15:02;98779.99;;;8.30;81.82
73566;BME280;61846;52.970;-3.168;2024-02-21T10:17:23;98776.32;;;7.06;85.55
73566;BME280;61846;52.970;-3.168;2024-02-21T10:19:48;98768.54;;;7.76;83.22
73566;BME280;61846;52.970;-3.168;2024-02-21T10:22:17;98758.53;;;7.51;83.77
73566;BME280;61846;52.970;-3.168;2024-02-21T10:24:40;98751.58;;;7.22;84.76
73566;BME280;61846;52.970;-3.168;2024-02-21T10:27:06;98744.29;;;7.91;84.49
73566;BME280;61846;52.970;-3.168;2024-02-21T10:29:31;98749.31;;;7.27;84.72
73566;BME280;61846;52.970;-3.168;2024-02-21T10:32:05;98732.02;;;7.93;82.74
73566;BME280;61846;52.970;-3.168;2024-02-21T10:34:22;98727.45;;;8.05;81.47
73566;BME280;61846;52.970;-3.168;2024-02-21T10:36:47;98736.54;;;8.33;82.22
73566;BME280;61846;52.970;-3.168;2024-02-21T10:39:13;98725.57;;;8.80;81.46
73566;BME280;61846;52.970;-3.168;2024-02-21T10:41:39;98724.63;;;8.34;82.71
73566;BME280;61846;52.970;-3.168;2024-02-21T10:44:05;98724.32;;;8.88;81.11
73566;BME280;61846;52.970;-3.168;2024-02-21T10:46:30;98713.47;;;9.01;77.34
73566;BME280;61846;52.970;-3.168;2024-02-21T10:49:03;98713.61;;;8.45;80.49
73566;BME280;61846;52.970;-3.168;2024-02-21T10:51:21;98710.37;;;8.84;79.63
73566;BME280;61846;52.970;-3.168;2024-02-21T10:53:54;98702.18;;;8.20;81.61
73566;BME280;61846;52.970;-3.168;2024-02-21T10:56:21;98702.25;;;9.56;78.43
73566;BME280;61846;52.970;-3.168;2024-02-21T10:58:38;98702.21;;;9.83;75.79
73566;BME280;61846;52.970;-3.168;2024-02-21T11:01:03;98683.76;;;9.62;78.51
73566;BME280;61846;52.970;-3.168;2024-02-21T11:03:28;98687.22;;;8.91;79.28
73566;BME280;61846;52.970;-3.168;2024-02-21T11:05:54;98666.05;;;9.77;78.77
73566;BME280;61846;52.970;-3.168;2024-02-21T11:08:19;98666.28;;;9.86;77.48
73566;BME280;61846;52.970;-3.168;2024-02-21T11:10:46;98670.28;;;9.40;77.51
73566;BME280;61846;52.970;-3.168;2024-02-21T11:13:11;98657.30;;;10.09;76.89
73566;BME280;61846;52.970;-3.168;2024-02-21T11:15:36;98668.21;;;8.42;81.22
73566;BME280;61846;52.970;-3.168;2024-02-21T11:18:02;98653.86;;;9.87;80.11
73566;BME280;61846;52.970;-3.168;2024-02-21T11:20:34;98651.37;;;9.43;80.00
73566;BME280;61846;52.970;-3.168;2024-02-21T11:22:53;98650.90;;;9.17;80.11
73566;BME280;61846;52.970;-3.168;2024-02-21T11:25:22;98623.41;;;9.10;79.88
73566;BME280;61846;52.970;-3.168;2024-02-21T11:27:46;98620.94;;;10.00;78.42
73566;BME280;61846;52.970;-3.168;2024-02-21T11:30:12;98621.29;;;8.91;81.92
73566;BME280;61846;52.970;-3.168;2024-02-21T11:32:35;98625.73;;;9.35;81.69
73566;BME280;61846;52.970;-3.168;2024-02-21T11:35:01;98617.42;;;9.40;80.19
73566;BME280;61846;52.970;-3.168;2024-02-21T11:37:26;98608.93;;;10.21;77.41
73566;BME280;61846;52.970;-3.168;2024-02-21T11:39:51;98608.90;;;10.38;76.89
73566;BME280;61846;52.970;-3.168;2024-02-21T11:42:16;98596.12;;;10.97;74.48
73566;BME280;61846;52.970;-3.168;2024-02-21T11:44:42;98588.76;;;11.64;72.87
73566;BME280;61846;52.970;-3.168;2024-02-21T11:47:08;98588.09;;;12.05;71.19
73566;BME280;61846;52.970;-3.168;2024-02-21T11:49:37;98590.94;;;12.22;69.90
73566;BME280;61846;52.970;-3.168;2024-02-21T11:51:59;98588.50;;;11.91;70.72
73566;BME280;61846;52.970;-3.168;2024-02-21T11:54:24;98586.72;;;13.19;67.29
73566;BME280;61846;52.970;-3.168;2024-02-21T11:56:50;98598.21;;;12.22;69.73
73566;BME280;61846;52.970;-3.168;2024-02-21T11:59:15;98593.28;;;12.18;71.07
73566;BME280;61846;52.970;-3.168;2024-02-21T12:01:41;98595.51;;;13.36;65.30
73566;BME280;61846;52.970;-3.168;2024-02-21T12:04:06;98595.07;;;10.68;73.43
73566;BME280;61846;52.970;-3.168;2024-02-21T12:06:33;98594.99;;;11.28;71.63
73566;BME280;61846;52.970;-3.168;2024-02-21T12:08:58;98589.63;;;13.49;65.30
73566;BME280;61846;52.970;-3.168;2024-02-21T12:11:22;98581.57;;;13.86;64.41
73566;BME280;61846;52.970;-3.168;2024-02-21T12:13:58;98584.68;;;12.78;66.43
73566;BME280;61846;52.970;-3.168;2024-02-21T12:16:15;98580.42;;;12.78;66.00
73566;BME280;61846;52.970;-3.168;2024-02-21T12:18:39;98579.92;;;12.43;68.32
73566;BME280;61846;52.970;-3.168;2024-02-21T12:21:05;98577.20;;;11.15;71.19
73566;BME280;61846;52.970;-3.168;2024-02-21T12:23:30;98575.45;;;11.91;69.06
73566;BME280;61846;52.970;-3.168;2024-02-21T12:25:55;98584.50;;;12.22;68.12
73566;BME280;61846;52.970;-3.168;2024-02-21T12:28:21;98581.54;;;11.10;72.02
73566;BME280;61846;52.970;-3.168;2024-02-21T12:30:46;98571.49;;;12.91;66.80
73566;BME280;61846;52.970;-3.168;2024-02-21T12:33:12;98562.43;;;13.24;64.15
73566;BME280;61846;52.970;-3.168;2024-02-21T12:35:37;98560.80;;;13.23;65.40
73566;BME280;61846;52.970;-3.168;2024-02-21T12:38:02;98561.67;;;13.19;65.49
73566;BME280;61846;52.970;-3.168;2024-02-21T12:40:28;98559.46;;;13.86;64.12
73566;BME280;61846;52.970;-3.168;2024-02-21T12:42:53;98560.67;;;15.48;58.74
73566;BME280;61846;52.970;-3.168;2024-02-21T12:45:19;98556.20;;;16.03;58.07
73566;BME280;61846;52.970;-3.168;2024-02-21T12:47:44;98555.80;;;16.30;57.64